sensor_id;sensor_type;location;lat;lon;timestamp;P1;durP1;ratioP1;P2;durP2;ratioP2
29210;SDS011;16250;49.932;10.980;2023-02-10T00:01:17;60.97;;;39.38;;
29210;SDS011;16250;49.932;10.980;2023-02-10T00:03:44;61.25;;;41.85;;
29210;SDS011;16250;49.932;10.980;2023-02-10T00:06:10;58.38;;;45.08;;
29210;SDS011;16250;49.932;10.980;2023-02-10T00:08:36;57.78;;;40.85;;
29210;SDS011;16250;49.932;10.980;2023-02-10T00:11:03;60.33;;;42.03;;
29210;SDS011;16250;49.932;10.980;2023-02-10T00:13:30;58.72;;;42.95;;
29210;SDS011;16250;49.932;10.980;2023-02-10T00:15:59;54.58;;;42.78;;
29210;SDS011;16250;49.932;10.980;2023-02-10T00:18:26;57.28;;;44.78;;
29210;SDS011;16250;49.932;10.980;2023-02-10T00:20:51;56.30;;;44.90;;
29210;SDS011;16250;49.932;10.980;2023-02-10T00:23:17;62.83;;;47.53;;
29210;SDS011;16250;49.932;10.980;2023-02-10T00:25:42;60.97;;;47.30;;
29210;SDS011;16250;49.932;10.980;2023-02-10T00:28:08;63.88;;;43.33;;
29210;SDS011;16250;49.932;10.980;2023-02-10T00:30:33;65.45;;;48.05;;
29210;SDS011;16250;49.932;10.980;2023-02-10T00:32:59;63.30;;;47.00;;
29210;SDS011;16250;49.932;10.980;2023-02-10T00:35:24;68.18;;;45.40;;
29210;SDS011;16250;49.932;10.980;2023-02-10T00:37:49;65.70;;;43.97;;
29210;SDS011;16250;49.932;10.980;2023-02-10T00:40:15;62.20;;;47.05;;
29210;SDS011;16250;49.932;10.980;2023-02-10T00:42:41;68.45;;;49.50;;
29210;SDS011;16250;49.932;10.980;2023-02-10T00:45:06;70.30;;;47.08;;
29210;SDS011;16250;49.932;10.980;2023-02-10T00:47:33;65.20;;;49.30;;
29210;SDS011;16250;49.932;10.980;2023-02-10T00:49:59;69.00;;;42.10;;
29210;SDS011;16250;49.932;10.980;2023-02-10T00:52:24;67.40;;;43.78;;
29210;SDS011;16250;49.932;10.980;2023-02-10T00:54:50;64.47;;;46.78;;
29210;SDS011;16250;49.932;10.980;2023-02-10T00:57:16;69.30;;;45.10;;
29210;SDS011;16250;49.932;10.980;2023-02-10T00:59:41;70.28;;;44.50;;
29210;SDS011;16250;49.932;10.980;2023-02-10T01:02:07;68.47;;;46.35;;
29210;SDS011;16250;49.932;10.980;2023-02-10T01:04:32;67.72;;;50.42;;
29210;SDS011;16250;49.932;10.980;2023-02-10T01:06:58;62.58;;;49.92;;
29210;SDS011;16250;49.932;10.980;2023-02-10T01:09:23;70.57;;;47.28;;
29210;SDS011;16250;49.932;10.980;2023-02-10T01:11:49;64.82;;;50.40;;
29210;SDS011;16250;49.932;10.980;2023-02-10T01:14:15;68.57;;;47.40;;
29210;SDS011;16250;49.932;10.980;2023-02-10T01:16:40;66.20;;;45.45;;
29210;SDS011;16250;49.932;10.980;2023-02-10T01:19:07;64.60;;;49.33;;
29210;SDS011;16250;49.932;10.980;2023-02-10T01:21:33;70.50;;;52.90;;
29210;SDS011;16250;49.932;10.980;2023-02-10T01:23:58;73.47;;;47.63;;
29210;SDS011;16250;49.932;10.980;2023-02-10T01:26:24;75.75;;;51.25;;
29210;SDS011;16250;49.932;10.980;2023-02-10T01:28:50;72.80;;;47.13;;
29210;SDS011;16250;49.932;10.980;2023-02-10T01:31:16;72.60;;;50.25;;
29210;SDS011;16250;49.932;10.980;2023-02-10T01:33:43;71.10;;;51.47;;
29210;SDS011;16250;49.932;10.980;2023-02-10T01:36:10;69.72;;;51.28;;
29210;SDS011;16250;49.932;10.980;2023-02-10T01:38:40;75.65;;;50.30;;
29210;SDS011;16250;49.932;10.980;2023-02-10T01:41:06;76.60;;;53.13;;
29210;SDS011;16250;49.932;10.980;2023-02-10T01:43:33;77.05;;;43.60;;
29210;SDS011;16250;49.932;10.980;2023-02-10T01:46:17;69.30;;;51.75;;
29210;SDS011;16250;49.932;10.980;2023-02-10T01:48:42;75.85;;;53.15;;
29210;SDS011;16250;49.932;10.980;2023-02-10T01:51:08;74.43;;;55.03;;
29210;SDS011;16250;49.932;10.980;2023-02-10T01:53:33;74.00;;;47.75;;
29210;SDS011;16250;49.932;10.980;2023-02-10T01:55:59;76.68;;;53.72;;
29210;SDS011;16250;49.932;10.980;2023-02-10T01:58:27;71.97;;;55.40;;
29210;SDS011;16250;49.932;10.980;2023-02-10T02:00:54;76.05;;;48.20;;
29210;SDS011;16250;49.932;10.980;2023-02-10T02:03:20;74.97;;;48.88;;
29210;SDS011;16250;49.932;10.980;2023-02-10T02:05:45;77.82;;;55.97;;
29210;SDS011;16250;49.932;10.980;2023-02-10T02:08:24;77.55;;;48.97;;
29210;SDS011;16250;49.932;10.980;2023-02-10T02:10:52;75.05;;;49.72;;
29210;SDS011;16250;49.932;10.980;2023-02-10T02:13:28;77.93;;;44.45;;
29210;SDS011;16250;49.932;10.980;2023-02-10T02:16:04;75.15;;;49.58;;
29210;SDS011;16250;49.932;10.980;2023-02-10T02:18:55;75.78;;;55.75;;
29210;SDS011;16250;49.932;10.980;2023-02-10T02:32:53;74.95;;;50.00;;
29210;SDS011;16250;49.932;10.980;2023-02-10T02:35:24;74.20;;;55.88;;
29210;SDS011;16250;49.932;10.980;2023-02-10T02:37:51;74.70;;;55.75;;
29210;SDS011;16250;49.932;10.980;2023-02-10T02:40:18;77.18;;;51.42;;
29210;SDS011;16250;49.932;10.980;2023-02-10T02:42:43;80.90;;;56.83;;
29210;SDS011;16250;49.932;10.980;2023-02-10T02:47:44;83.68;;;57.20;;
29210;SDS011;16250;49.932;10.980;2023-02-10T02:50:27;85.28;;;61.13;;
29210;SDS011;16250;49.932;10.980;2023-02-10T02:58:04;84.57;;;58.70;;
29210;SDS011;16250;49.932;10.980;2023-02-10T03:00:42;85.78;;;51.85;;
29210;SDS011;16250;49.932;10.980;2023-02-10T03:03:09;76.93;;;52.13;;
29210;SDS011;16250;49.932;10.980;2023-02-10T03:05:35;79.40;;;56.97;;
29210;SDS011;16250;49.932;10.980;2023-02-10T03:08:01;76.10;;;51.45;;
29210;SDS011;16250;49.932;10.980;2023-02-10T03:10:26;73.70;;;50.10;;
29210;SDS011;16250;49.932;10.980;2023-02-10T03:12:52;74.38;;;51.63;;
29210;SDS011;16250;49.932;10.980;2023-02-10T03:15:17;72.68;;;44.70;;
29210;SDS011;16250;49.932;10.980;2023-02-10T03:17:42;76.82;;;51.83;;
29210;SDS011;16250;49.932;10.980;2023-02-10T03:20:08;68.97;;;45.85;;
29210;SDS011;16250;49.932;10.980;2023-02-10T03:22:34;71.78;;;48.00;;
29210;SDS011;16250;49.932;10.980;2023-02-10T03:25:00;79.78;;;51.42;;
29210;SDS011;16250;49.932;10.980;2023-02-10T03:27:25;77.65;;;45.38;;
29210;SDS011;16250;49.932;10.980;2023-02-10T03:29:51;76.47;;;57.85;;
29210;SDS011;16250;49.932;10.980;2023-02-10T03:32:17;78.07;;;54.03;;
29210;SDS011;16250;49.932;10.980;2023-02-10T03:34:43;82.63;;;58.60;;
29210;SDS011;16250;49.932;10.980;2023-02-10T03:37:09;87.65;;;61.88;;
29210;SDS011;16250;49.932;10.980;2023-02-10T03:39:34;286.15;;;209.60;;
29210;SDS011;16250;49.932;10.980;2023-02-10T03:41:59;124.97;;;79.53;;
29210;SDS011;16250;49.932;10.980;2023-02-10T03:44:25;95.97;;;68.97;;
29210;SDS011;16250;49.932;10.980;2023-02-10T03:46:50;82.10;;;55.75;;
29210;SDS011;16250;49.932;10.980;2023-02-10T03:49:16;78.88;;;58.58;;
29210;SDS011;16250;49.932;10.980;2023-02-10T03:51:41;77.43;;;53.00;;
29210;SDS011;16250;49.932;10.980;2023-02-10T03:54:07;85.00;;;61.20;;
29210;SDS011;16250;49.932;10.980;2023-02-10T03:56:32;88.80;;;44.10;;
29210;SDS011;16250;49.932;10.980;2023-02-10T03:59:00;88.72;;;51.75;;
29210;SDS011;16250;49.932;10.980;2023-02-10T04:01:26;84.45;;;43.13;;
29210;SDS011;16250;49.932;10.980;2023-02-10T04:03:51;88.03;;;62.55;;
29210;SDS011;16250;49.932;10.980;2023-02-10T04:06:17;90.63;;;64.13;;
29210;SDS011;16250;49.932;10.980;2023-02-10T04:08:42;94.78;;;55.05;;
29210;SDS011;16250;49.932;10.980;2023-02-10T04:11:07;92.45;;;61.75;;
29210;SDS011;16250;49.932;10.980;2023-02-10T04:13:34;89.40;;;65.18;;
29210;SDS011;16250;49.932;10.980;2023-02-10T04:16:04;94.72;;;62.53;;
29210;SDS011;16250;49.932;10.980;2023-02-10T04:18:31;85.03;;;64.15;;
29210;SDS011;16250;49.932;10.980;2023-02-10T04:20:57;86.75;;;50.53;;
29210;SDS011;16250;49.932;10.980;2023-02-10T04:23:22;93.03;;;56.80;;
29210;SDS011;16250;49.932;10.980;2023-02-10T04:25:48;83.00;;;48.97;;
29210;SDS011;16250;49.932;10.980;2023-02-10T04:28:13;89.88;;;51.47;;
29210;SDS011;16250;49.932;10.980;2023-02-10T04:30:38;89.40;;;64.68;;
29210;SDS011;16250;49.932;10.980;2023-02-10T04:33:04;94.25;;;59.67;;
29210;SDS011;16250;49.932;10.980;2023-02-10T04:35:29;92.25;;;66.13;;
29210;SDS011;16250;49.932;10.980;2023-02-10T04:37:55;91.30;;;67.28;;
29210;SDS011;16250;49.932;10.980;2023-02-10T04:40:21;94.45;;;54.33;;
29210;SDS011;16250;49.932;10.980;2023-02-10T04:42:47;87.28;;;64.07;;
29210;SDS011;16250;49.932;10.980;2023-02-10T04:45:12;98.00;;;55.22;;
29210;SDS011;16250;49.932;10.980;2023-02-10T04:47:37;94.40;;;68.55;;
29210;SDS011;16250;49.932;10.980;2023-02-10T04:50:03;102.50;;;74.35;;
29210;SDS011;16250;49.932;10.980;2023-02-10T04:52:29;98.25;;;71.53;;
29210;SDS011;16250;49.932;10.980;2023-02-10T04:54:54;101.75;;;73.25;;
29210;SDS011;16250;49.932;10.980;2023-02-10T04:57:20;110.75;;;78.60;;
29210;SDS011;16250;49.932;10.980;2023-02-10T04:59:45;103.45;;;68.43;;
29210;SDS011;16250;49.932;10.980;2023-02-10T05:02:10;107.45;;;61.13;;
29210;SDS011;16250;49.932;10.980;2023-02-10T05:04:36;100.00;;;66.60;;
29210;SDS011;16250;49.932;10.980;2023-02-10T05:07:01;102.07;;;73.07;;
29210;SDS011;16250;49.932;10.980;2023-02-10T05:09:27;96.45;;;62.22;;
29210;SDS011;16250;49.932;10.980;2023-02-10T05:11:52;102.55;;;72.85;;
29210;SDS011;16250;49.932;10.980;2023-02-10T05:14:18;98.57;;;64.40;;
29210;SDS011;16250;49.932;10.980;2023-02-10T05:16:43;97.43;;;70.88;;
29210;SDS011;16250;49.932;10.980;2023-02-10T05:19:08;102.22;;;63.42;;
29210;SDS011;16250;49.932;10.980;2023-02-10T05:21:34;121.22;;;75.40;;
29210;SDS011;16250;49.932;10.980;2023-02-10T05:24:00;116.68;;;70.72;;
29210;SDS011;16250;49.932;10.980;2023-02-10T05:26:25;88.78;;;46.33;;
29210;SDS011;16250;49.932;10.980;2023-02-10T05:28:51;86.55;;;65.97;;
29210;SDS011;16250;49.932;10.980;2023-02-10T05:31:16;90.05;;;64.63;;
29210;SDS011;16250;49.932;10.980;2023-02-10T05:33:41;88.20;;;63.80;;
29210;SDS011;16250;49.932;10.980;2023-02-10T05:36:07;90.70;;;43.97;;
29210;SDS011;16250;49.932;10.980;2023-02-10T05:38:32;88.13;;;62.50;;
29210;SDS011;16250;49.932;10.980;2023-02-10T05:40:58;89.38;;;51.65;;
29210;SDS011;16250;49.932;10.980;2023-02-10T05:43:23;90.85;;;65.13;;
29210;SDS011;16250;49.932;10.980;2023-02-10T05:45:49;97.55;;;55.72;;
29210;SDS011;16250;49.932;10.980;2023-02-10T05:48:14;91.00;;;60.13;;
29210;SDS011;16250;49.932;10.980;2023-02-10T05:50:39;87.97;;;61.20;;
29210;SDS011;16250;49.932;10.980;2023-02-10T05:53:12;93.30;;;51.67;;
29210;SDS011;16250;49.932;10.980;2023-02-10T05:55:38;96.32;;;62.42;;
29210;SDS011;16250;49.932;10.980;2023-02-10T05:58:03;92.05;;;54.60;;
29210;SDS011;16250;49.932;10.980;2023-02-10T06:00:28;87.85;;;58.58;;
29210;SDS011;16250;49.932;10.980;2023-02-10T06:02:54;93.80;;;63.40;;
29210;SDS011;16250;49.932;10.980;2023-02-10T06:05:19;87.95;;;46.50;;
29210;SDS011;16250;49.932;10.980;2023-02-10T06:07:45;90.82;;;64.20;;
29210;SDS011;16250;49.932;10.980;2023-02-10T06:10:10;89.78;;;65.60;;
29210;SDS011;16250;49.932;10.980;2023-02-10T06:12:35;92.05;;;68.47;;
29210;SDS011;16250;49.932;10.980;2023-02-10T06:15:01;91.43;;;67.25;;
29210;SDS011;16250;49.932;10.980;2023-02-10T06:17:26;94.97;;;65.22;;
29210;SDS011;16250;49.932;10.980;2023-02-10T06:19:52;94.55;;;52.55;;
29210;SDS011;16250;49.932;10.980;2023-02-10T06:22:18;95.47;;;56.33;;
29210;SDS011;16250;49.932;10.980;2023-02-10T06:24:43;101.30;;;63.10;;
29210;SDS011;16250;49.932;10.980;2023-02-10T06:27:09;96.03;;;63.42;;
29210;SDS011;16250;49.932;10.980;2023-02-10T06:29:34;105.18;;;73.70;;
29210;SDS011;16250;49.932;10.980;2023-02-10T06:32:00;109.00;;;78.82;;
29210;SDS011;16250;49.932;10.980;2023-02-10T06:34:25;101.60;;;71.70;;
29210;SDS011;16250;49.932;10.980;2023-02-10T06:36:50;107.20;;;75.72;;
29210;SDS011;16250;49.932;10.980;2023-02-10T06:39:16;102.00;;;66.43;;
29210;SDS011;16250;49.932;10.980;2023-02-10T06:41:41;102.20;;;67.45;;
29210;SDS011;16250;49.932;10.980;2023-02-10T06:44:07;102.43;;;71.85;;
29210;SDS011;16250;49.932;10.980;2023-02-10T06:46:32;103.13;;;66.28;;
29210;SDS011;16250;49.932;10.980;2023-02-10T06:48:58;91.78;;;65.18;;
29210;SDS011;16250;49.932;10.980;2023-02-10T06:51:24;108.13;;;76.57;;
29210;SDS011;16250;49.932;10.980;2023-02-10T06:53:50;111.53;;;62.40;;
29210;SDS011;16250;49.932;10.980;2023-02-10T06:56:15;120.03;;;73.32;;
29210;SDS011;16250;49.932;10.980;2023-02-10T06:58:41;176.32;;;123.65;;
29210;SDS011;16250;49.932;10.980;2023-02-10T07:01:10;179.07;;;92.20;;
29210;SDS011;16250;49.932;10.980;2023-02-10T07:03:36;147.88;;;73.55;;
29210;SDS011;16250;49.932;10.980;2023-02-10T07:06:02;123.95;;;76.10;;
29210;SDS011;16250;49.932;10.980;2023-02-10T07:08:28;140.60;;;67.97;;
29210;SDS011;16250;49.932;10.980;2023-02-10T07:10:54;140.00;;;68.45;;
29210;SDS011;16250;49.932;10.980;2023-02-10T07:13:19;112.60;;;69.30;;
29210;SDS011;16250;49.932;10.980;2023-02-10T07:15:44;107.50;;;65.32;;
29210;SDS011;16250;49.932;10.980;2023-02-10T07:18:11;107.30;;;66.15;;
29210;SDS011;16250;49.932;10.980;2023-02-10T07:20:36;113.43;;;76.25;;
29210;SDS011;16250;49.932;10.980;2023-02-10T07:23:02;113.78;;;70.32;;
29210;SDS011;16250;49.932;10.980;2023-02-10T07:25:27;105.57;;;71.10;;
29210;SDS011;16250;49.932;10.980;2023-02-10T07:27:52;115.68;;;66.18;;
29210;SDS011;16250;49.932;10.980;2023-02-10T07:30:18;107.57;;;72.95;;
29210;SDS011;16250;49.932;10.980;2023-02-10T07:32:43;107.22;;;55.45;;
29210;SDS011;16250;49.932;10.980;2023-02-10T07:35:09;99.32;;;73.75;;
29210;SDS011;16250;49.932;10.980;2023-02-10T07:37:35;109.55;;;56.78;;
29210;SDS011;16250;49.932;10.980;2023-02-10T07:40:01;107.35;;;60.70;;
29210;SDS011;16250;49.932;10.980;2023-02-10T07:42:26;101.97;;;69.13;;
29210;SDS011;16250;49.932;10.980;2023-02-10T07:45:06;103.50;;;63.85;;
29210;SDS011;16250;49.932;10.980;2023-02-10T07:47:32;105.30;;;73.55;;
29210;SDS011;16250;49.932;10.980;2023-02-10T07:49:57;101.57;;;64.40;;
29210;SDS011;16250;49.932;10.980;2023-02-10T07:52:23;116.72;;;59.28;;
29210;SDS011;16250;49.932;10.980;2023-02-10T07:54:49;104.55;;;62.47;;
29210;SDS011;16250;49.932;10.980;2023-02-10T07:57:14;106.18;;;66.05;;
29210;SDS011;16250;49.932;10.980;2023-02-10T07:59:40;101.70;;;64.75;;
29210;SDS011;16250;49.932;10.980;2023-02-10T08:02:06;103.60;;;66.82;;
29210;SDS011;16250;49.932;10.980;2023-02-10T08:04:32;98.10;;;64.72;;
29210;SDS011;16250;49.932;10.980;2023-02-10T08:06:57;105.03;;;66.15;;
29210;SDS011;16250;49.932;10.980;2023-02-10T08:09:23;104.82;;;57.63;;
29210;SDS011;16250;49.932;10.980;2023-02-10T08:11:48;108.35;;;63.03;;
29210;SDS011;16250;49.932;10.980;2023-02-10T08:14:14;106.57;;;56.70;;
29210;SDS011;16250;49.932;10.980;2023-02-10T08:16:39;97.55;;;61.58;;
29210;SDS011;16250;49.932;10.980;2023-02-10T08:19:05;96.85;;;66.47;;
29210;SDS011;16250;49.932;10.980;2023-02-10T08:21:30;103.47;;;64.90;;
29210;SDS011;16250;49.932;10.980;2023-02-10T08:23:55;93.63;;;63.10;;
29210;SDS011;16250;49.932;10.980;2023-02-10T08:26:22;101.78;;;57.22;;
29210;SDS011;16250;49.932;10.980;2023-02-10T08:28:48;103.93;;;58.38;;
29210;SDS011;16250;49.932;10.980;2023-02-10T08:31:13;95.25;;;62.75;;
29210;SDS011;16250;49.932;10.980;2023-02-10T08:33:39;101.30;;;61.92;;
29210;SDS011;16250;49.932;10.980;2023-02-10T08:36:07;98.85;;;60.78;;
29210;SDS011;16250;49.932;10.980;2023-02-10T08:38:33;98.03;;;57.70;;
29210;SDS011;16250;49.932;10.980;2023-02-10T08:41:00;96.97;;;55.42;;
29210;SDS011;16250;49.932;10.980;2023-02-10T08:43:26;96.50;;;59.95;;
29210;SDS011;16250;49.932;10.980;2023-02-10T08:45:53;104.18;;;56.80;;
29210;SDS011;16250;49.932;10.980;2023-02-10T08:48:20;92.82;;;66.53;;
29210;SDS011;16250;49.932;10.980;2023-02-10T08:50:45;92.25;;;53.50;;
29210;SDS011;16250;49.932;10.980;2023-02-10T08:53:10;96.05;;;55.15;;
29210;SDS011;16250;49.932;10.980;2023-02-10T08:55:36;94.63;;;55.67;;
29210;SDS011;16250;49.932;10.980;2023-02-10T08:58:02;87.22;;;64.57;;
29210;SDS011;16250;49.932;10.980;2023-02-10T09:00:28;95.03;;;59.03;;
29210;SDS011;16250;49.932;10.980;2023-02-10T09:02:53;96.05;;;59.03;;
29210;SDS011;16250;49.932;10.980;2023-02-10T09:05:18;95.00;;;59.83;;
29210;SDS011;16250;49.932;10.980;2023-02-10T09:07:44;81.80;;;65.85;;
29210;SDS011;16250;49.932;10.980;2023-02-10T09:10:10;88.95;;;65.22;;
29210;SDS011;16250;49.932;10.980;2023-02-10T09:12:37;83.45;;;65.80;;
29210;SDS011;16250;49.932;10.980;2023-02-10T09:15:03;86.38;;;66.93;;
29210;SDS011;16250;49.932;10.980;2023-02-10T09:17:29;87.80;;;63.78;;
29210;SDS011;16250;49.932;10.980;2023-02-10T09:19:54;81.90;;;63.08;;
29210;SDS011;16250;49.932;10.980;2023-02-10T09:22:20;82.55;;;62.40;;
29210;SDS011;16250;49.932;10.980;2023-02-10T09:24:45;81.97;;;62.45;;
29210;SDS011;16250;49.932;10.980;2023-02-10T09:27:13;81.15;;;62.40;;
29210;SDS011;16250;49.932;10.980;2023-02-10T09:29:39;82.82;;;62.55;;
29210;SDS011;16250;49.932;10.980;2023-02-10T09:32:05;82.28;;;62.15;;
29210;SDS011;16250;49.932;10.980;2023-02-10T09:34:30;81.40;;;61.15;;
29210;SDS011;16250;49.932;10.980;2023-02-10T09:36:57;74.40;;;58.38;;
29210;SDS011;16250;49.932;10.980;2023-02-10T09:39:26;79.18;;;59.67;;
29210;SDS011;16250;49.932;10.980;2023-02-10T09:41:55;79.70;;;60.17;;
29210;SDS011;16250;49.932;10.980;2023-02-10T09:44:28;76.55;;;57.95;;
29210;SDS011;16250;49.932;10.980;2023-02-10T09:54:59;80.05;;;61.28;;
29210;SDS011;16250;49.932;10.980;2023-02-10T09:57:28;79.72;;;59.38;;
29210;SDS011;16250;49.932;10.980;2023-02-10T09:59:57;76.93;;;57.95;;
29210;SDS011;16250;49.932;10.980;2023-02-10T10:02:33;78.53;;;58.22;;
29210;SDS011;16250;49.932;10.980;2023-02-10T10:05:00;79.10;;;60.03;;
29210;SDS011;16250;49.932;10.980;2023-02-10T10:07:36;79.60;;;59.78;;
29210;SDS011;16250;49.932;10.980;2023-02-10T10:10:09;74.53;;;56.95;;
29210;SDS011;16250;49.932;10.980;2023-02-10T10:12:39;78.43;;;60.20;;
29210;SDS011;16250;49.932;10.980;2023-02-10T10:15:09;79.90;;;61.92;;
29210;SDS011;16250;49.932;10.980;2023-02-10T10:17:43;121.53;;;94.18;;
29210;SDS011;16250;49.932;10.980;2023-02-10T10:28:58;78.03;;;60.57;;
29210;SDS011;16250;49.932;10.980;2023-02-10T10:31:35;78.90;;;57.05;;
29210;SDS011;16250;49.932;10.980;2023-02-10T10:34:10;73.78;;;57.22;;
29210;SDS011;16250;49.932;10.980;2023-02-10T10:36:49;75.57;;;57.15;;
29210;SDS011;16250;49.932;10.980;2023-02-10T10:42:09;75.70;;;57.80;;
29210;SDS011;16250;49.932;10.980;2023-02-10T10:44:41;76.85;;;56.65;;
29210;SDS011;16250;49.932;10.980;2023-02-10T10:47:12;79.05;;;57.13;;
29210;SDS011;16250;49.932;10.980;2023-02-10T10:49:40;74.18;;;54.92;;
29210;SDS011;16250;49.932;10.980;2023-02-10T10:54:54;73.85;;;52.42;;
29210;SDS011;16250;49.932;10.980;2023-02-10T10:57:20;70.68;;;55.03;;
29210;SDS011;16250;49.932;10.980;2023-02-10T10:59:48;80.35;;;56.00;;
29210;SDS011;16250;49.932;10.980;2023-02-10T11:02:18;72.60;;;54.30;;
29210;SDS011;16250;49.932;10.980;2023-02-10T11:04:45;79.60;;;56.20;;
29210;SDS011;16250;49.932;10.980;2023-02-10T11:07:12;71.82;;;55.25;;
29210;SDS011;16250;49.932;10.980;2023-02-10T11:09:48;72.35;;;55.25;;
29210;SDS011;16250;49.932;10.980;2023-02-10T11:12:27;77.75;;;57.85;;
29210;SDS011;16250;49.932;10.980;2023-02-10T11:14:55;74.97;;;54.55;;
29210;SDS011;16250;49.932;10.980;2023-02-10T11:17:32;72.35;;;52.65;;
29210;SDS011;16250;49.932;10.980;2023-02-10T11:20:05;81.53;;;53.78;;
29210;SDS011;16250;49.932;10.980;2023-02-10T11:22:37;75.00;;;54.65;;
29210;SDS011;16250;49.932;10.980;2023-02-10T11:25:16;90.07;;;53.90;;
29210;SDS011;16250;49.932;10.980;2023-02-10T11:27:51;75.80;;;54.95;;
29210;SDS011;16250;49.932;10.980;2023-02-10T11:30:41;86.38;;;54.55;;
29210;SDS011;16250;49.932;10.980;2023-02-10T11:33:06;54.85;;;38.85;;
29210;SDS011;16250;49.932;10.980;2023-02-10T11:35:47;67.00;;;50.65;;
29210;SDS011;16250;49.932;10.980;2023-02-10T11:38:16;99.30;;;55.83;;
29210;SDS011;16250;49.932;10.980;2023-02-10T11:40:49;74.00;;;52.70;;
29210;SDS011;16250;49.932;10.980;2023-02-10T11:43:16;84.75;;;54.15;;
29210;SDS011;16250;49.932;10.980;2023-02-10T11:45:51;75.32;;;55.00;;
29210;SDS011;16250;49.932;10.980;2023-02-10T11:48:22;75.78;;;54.88;;
29210;SDS011;16250;49.932;10.980;2023-02-10T11:50:48;79.57;;;57.22;;
29210;SDS011;16250;49.932;10.980;2023-02-10T11:53:23;72.38;;;50.58;;
29210;SDS011;16250;49.932;10.980;2023-02-10T11:55:57;68.97;;;51.85;;
29210;SDS011;16250;49.932;10.980;2023-02-10T11:59:05;72.95;;;51.47;;
29210;SDS011;16250;49.932;10.980;2023-02-10T12:04:46;69.93;;;51.33;;
29210;SDS011;16250;49.932;10.980;2023-02-10T12:07:22;67.28;;;49.90;;
29210;SDS011;16250;49.932;10.980;2023-02-10T12:10:04;73.88;;;52.10;;
29210;SDS011;16250;49.932;10.980;2023-02-10T12:21:24;73.13;;;52.53;;
29210;SDS011;16250;49.932;10.980;2023-02-10T12:26:54;68.15;;;52.90;;
29210;SDS011;16250;49.932;10.980;2023-02-10T12:29:34;76.35;;;51.38;;
29210;SDS011;16250;49.932;10.980;2023-02-10T12:40:27;63.42;;;50.63;;
29210;SDS011;16250;49.932;10.980;2023-02-10T12:54:11;74.00;;;51.00;;
29210;SDS011;16250;49.932;10.980;2023-02-10T12:56:41;62.63;;;50.33;;
29210;SDS011;16250;49.932;10.980;2023-02-10T13:01:39;69.07;;;51.00;;
29210;SDS011;16250;49.932;10.980;2023-02-10T13:04:25;66.18;;;48.35;;
29210;SDS011;16250;49.932;10.980;2023-02-10T13:09:43;71.88;;;51.88;;
29210;SDS011;16250;49.932;10.980;2023-02-10T13:15:04;72.13;;;51.58;;
29210;SDS011;16250;49.932;10.980;2023-02-10T13:17:42;71.97;;;50.53;;
29210;SDS011;16250;49.932;10.980;2023-02-10T13:22:44;83.78;;;50.97;;
29210;SDS011;16250;49.932;10.980;2023-02-10T13:25:12;92.10;;;54.15;;
29210;SDS011;16250;49.932;10.980;2023-02-10T13:30:27;73.55;;;51.70;;
29210;SDS011;16250;49.932;10.980;2023-02-10T13:36:01;62.55;;;47.40;;
29210;SDS011;16250;49.932;10.980;2023-02-10T13:38:27;70.53;;;48.70;;
29210;SDS011;16250;49.932;10.980;2023-02-10T13:40:57;73.38;;;47.75;;
29210;SDS011;16250;49.932;10.980;2023-02-10T13:43:43;64.10;;;48.88;;
29210;SDS011;16250;49.932;10.980;2023-02-10T13:46:42;59.33;;;47.80;;
29210;SDS011;16250;49.932;10.980;2023-02-10T13:49:01;59.38;;;47.58;;
29210;SDS011;16250;49.932;10.980;2023-02-10T13:51:32;80.95;;;48.67;;
29210;SDS011;16250;49.932;10.980;2023-02-10T13:53:59;70.38;;;45.92;;
29210;SDS011;16250;49.932;10.980;2023-02-10T13:56:26;66.13;;;45.67;;
29210;SDS011;16250;49.932;10.980;2023-02-10T13:58:58;60.70;;;43.15;;
29210;SDS011;16250;49.932;10.980;2023-02-10T14:02:08;60.00;;;45.67;;
29210;SDS011;16250;49.932;10.980;2023-02-10T14:04:40;66.38;;;45.05;;
29210;SDS011;16250;49.932;10.980;2023-02-10T14:10:00;68.90;;;45.15;;
29210;SDS011;16250;49.932;10.980;2023-02-10T14:12:55;59.97;;;44.55;;
29210;SDS011;16250;49.932;10.980;2023-02-10T14:15:24;63.70;;;46.95;;
29210;SDS011;16250;49.932;10.980;2023-02-10T14:20:31;60.78;;;46.42;;
29210;SDS011;16250;49.932;10.980;2023-02-10T14:23:00;64.75;;;47.47;;
29210;SDS011;16250;49.932;10.980;2023-02-10T14:25:28;64.43;;;48.38;;
29210;SDS011;16250;49.932;10.980;2023-02-10T14:27:55;62.42;;;44.47;;
29210;SDS011;16250;49.932;10.980;2023-02-10T14:32:47;63.80;;;47.25;;
29210;SDS011;16250;49.932;10.980;2023-02-10T14:35:15;67.38;;;49.90;;
29210;SDS011;16250;49.932;10.980;2023-02-10T14:37:48;63.70;;;48.22;;
29210;SDS011;16250;49.932;10.980;2023-02-10T14:40:15;59.80;;;48.25;;
29210;SDS011;16250;49.932;10.980;2023-02-10T14:42:42;69.35;;;48.28;;
29210;SDS011;16250;49.932;10.980;2023-02-10T14:45:16;60.40;;;44.70;;
29210;SDS011;16250;49.932;10.980;2023-02-10T14:47:44;60.63;;;45.92;;
29210;SDS011;16250;49.932;10.980;2023-02-10T14:50:27;61.22;;;46.42;;
29210;SDS011;16250;49.932;10.980;2023-02-10T14:52:56;62.55;;;43.67;;
29210;SDS011;16250;49.932;10.980;2023-02-10T14:55:30;61.28;;;45.95;;
29210;SDS011;16250;49.932;10.980;2023-02-10T14:58:12;67.15;;;48.25;;
29210;SDS011;16250;49.932;10.980;2023-02-10T15:00:39;59.08;;;46.63;;
29210;SDS011;16250;49.932;10.980;2023-02-10T15:03:06;59.75;;;45.20;;
29210;SDS011;16250;49.932;10.980;2023-02-10T15:05:39;60.88;;;45.75;;
29210;SDS011;16250;49.932;10.980;2023-02-10T15:08:12;58.45;;;47.00;;
29210;SDS011;16250;49.932;10.980;2023-02-10T15:10:42;66.10;;;47.53;;
29210;SDS011;16250;49.932;10.980;2023-02-10T15:13:11;62.70;;;46.88;;
29210;SDS011;16250;49.932;10.980;2023-02-10T15:15:39;60.10;;;46.13;;
29210;SDS011;16250;49.932;10.980;2023-02-10T15:20:49;59.92;;;47.17;;
29210;SDS011;16250;49.932;10.980;2023-02-10T15:23:19;59.90;;;46.90;;
29210;SDS011;16250;49.932;10.980;2023-02-10T15:25:44;58.42;;;45.13;;
29210;SDS011;16250;49.932;10.980;2023-02-10T15:30:43;59.15;;;45.70;;
29210;SDS011;16250;49.932;10.980;2023-02-10T15:38:33;70.53;;;48.88;;
29210;SDS011;16250;49.932;10.980;2023-02-10T15:40:59;65.38;;;47.65;;
29210;SDS011;16250;49.932;10.980;2023-02-10T15:43:28;61.72;;;46.90;;
29210;SDS011;16250;49.932;10.980;2023-02-10T15:48:40;62.55;;;49.20;;
29210;SDS011;16250;49.932;10.980;2023-02-10T15:51:09;67.30;;;53.15;;
29210;SDS011;16250;49.932;10.980;2023-02-10T15:53:49;64.55;;;50.33;;
29210;SDS011;16250;49.932;10.980;2023-02-10T15:56:15;64.78;;;50.42;;
29210;SDS011;16250;49.932;10.980;2023-02-10T15:58:41;69.43;;;51.85;;
29210;SDS011;16250;49.932;10.980;2023-02-10T16:01:06;64.35;;;48.67;;
29210;SDS011;16250;49.932;10.980;2023-02-10T16:03:31;72.30;;;53.35;;
29210;SDS011;16250;49.932;10.980;2023-02-10T16:05:57;77.25;;;58.53;;